Time;durP1;ratioP1;P1;durP2;ratioP2;P2;SDS_P1;SDS_P2;PMS_P1;PMS_P2;Temp;Humidity;BMP_temperature;BMP_pressure;BME280_temperature;BME280_humidity;BME280_pressure;Samples;Min_cycle;Max_cycle;Signal;HPM_P1;HPM_P2
2023/01/02 00:01:25;;;;;;;6.65;1.15;;;;;;;13.99;76.69;98590.47;4170137;28;20239;-50
2023/01/02 00:03:28;;;;;;;3.30;1.70;;;;;;;13.93;77.05;98581.38;4171472;28;20315;-50
2023/01/02 00:05:30;;;;;;;4.68;1.20;;;;;;;14.16;75.00;98602.09;4155286;28;20232;-52
2023/01/02 00:07:32;;;;;;;1.90;1.30;;;;;;;14.09;75.96;98596.00;4173469;28;20204;-50
2023/01/02 00:09:34;;;;;;;3.60;1.63;;;;;;;14.02;75.97;98590.75;4180526;28;20329;-50
2023/01/02 00:11:36;;;;;;;1.83;1.73;;;;;;;14.14;74.71;98583.09;4169872;28;20278;-50
2023/01/02 00:13:38;;;;;;;7.43;1.10;;;;;;;14.09;75.18;98579.50;4170964;28;20323;-50
2023/01/02 00:15:39;;;;;;;3.25;1.77;;;;;;;14.11;74.85;98569.03;4170145;28;20240;-52
2023/01/02 00:17:41;;;;;;;1.45;1.23;;;;;;;14.10;74.79;98576.44;4156755;28;20633;-52
2023/01/02 00:19:43;;;;;;;4.85;1.65;;;;;;;14.09;74.71;98574.00;4173036;28;20223;-51
2023/01/02 00:21:45;;;;;;;1.38;0.93;;;;;;;14.24;73.43;98572.13;4170046;28;20209;-51
2023/01/02 00:23:47;;;;;;;2.15;1.30;;;;;;;14.35;72.78;98568.28;4170278;28;20239;-51
2023/01/02 00:25:49;;;;;;;2.22;1.15;;;;;;;14.30;72.66;98560.00;4169693;28;20213;-50
2023/01/02 00:27:50;;;;;;;3.05;1.05;;;;;;;14.28;73.14;98572.41;4175181;28;20303;-50
2023/01/02 00:29:52;;;;;;;2.80;1.15;;;;;;;14.29;72.96;98574.88;4169573;28;20221;-50
2023/01/02 00:31:53;;;;;;;8.50;1.17;;;;;;;14.33;72.38;98575.16;4157048;28;20401;-51
2023/01/02 00:33:55;;;;;;;2.05;1.38;;;;;;;14.32;71.95;98574.34;4174042;28;20681;-50
2023/01/02 00:35:57;;;;;;;3.10;2.80;;;;;;;14.31;72.10;98558.91;4167322;28;20220;-51
2023/01/02 00:37:59;;;;;;;4.18;2.05;;;;;;;14.15;73.14;98562.72;4152038;28;20243;-50
2023/01/02 00:40:00;;;;;;;2.03;0.98;;;;;;;14.15;72.86;98562.72;4168453;28;20336;-50
2023/01/02 00:42:02;;;;;;;2.55;1.00;;;;;;;14.18;72.68;98556.69;4172909;28;20627;-51
2023/01/02 00:44:04;;;;;;;2.25;1.60;;;;;;;14.16;72.30;98550.59;4171948;28;20611;-51
2023/01/02 00:46:06;;;;;;;1.40;1.15;;;;;;;14.13;72.52;98569.59;4172117;28;20298;-51
2023/01/02 00:48:12;;;;;;;6.57;1.85;;;;;;;14.06;72.75;98560.75;4181992;28;20222;-51
2023/01/02 00:50:14;;;;;;;2.72;1.88;;;;;;;14.10;72.44;98565.44;4170708;28;20251;-50
2023/01/02 00:52:16;;;;;;;3.80;0.90;;;;;;;14.12;72.39;98557.75;4169599;28;20242;-50
2023/01/02 00:54:18;;;;;;;2.90;1.48;;;;;;;14.13;72.55;98556.66;4153438;28;20209;-50
2023/01/02 00:56:19;;;;;;;2.03;0.73;;;;;;;14.04;72.94;98561.03;4168403;28;20271;-51
2023/01/02 00:58:21;;;;;;;0.90;0.90;;;;;;;14.10;72.30;98573.69;4172053;28;20291;-50
2023/01/02 01:00:23;;;;;;;3.10;1.45;;;;;;;14.16;71.78;98558.84;4171650;28;20737;-50
2023/01/02 01:02:25;;;;;;;1.13;0.95;;;;;;;14.25;71.23;98564.69;4173037;28;20891;-51
2023/01/02 01:04:27;;;;;;;6.72;1.02;;;;;;;14.26;71.05;98563.59;4170509;28;20232;-50
2023/01/02 01:06:29;;;;;;;4.15;1.10;;;;;;;14.30;70.65;98560.00;4152974;28;20209;-50
2023/01/02 01:08:30;;;;;;;1.25;1.00;;;;;;;14.31;70.85;98553.41;4164587;28;20417;-51
2023/01/02 01:10:34;;;;;;;1.63;1.52;;;;;;;14.27;70.40;98549.56;4168710;28;20263;-50
2023/01/02 01:12:36;;;;;;;2.13;1.20;;;;;;;14.21;71.23;98550.66;4183987;28;20200;-50
2023/01/02 01:14:38;;;;;;;5.43;1.92;;;;;;;14.21;71.13;98545.16;4166369;28;20222;-51
2023/01/02 01:16:40;;;;;;;5.30;1.00;;;;;;;14.16;71.13;98553.34;4154330;28;20209;-51
2023/01/02 01:18:43;;;;;;;4.50;1.63;;;;;;;14.17;70.99;98538.50;4155748;28;20208;-51
2023/01/02 01:20:44;;;;;;;1.13;0.90;;;;;;;14.18;71.26;98539.31;4167982;28;20224;-50
2023/01/02 01:22:46;;;;;;;7.70;1.65;;;;;;;14.22;70.59;98552.28;4168054;28;20314;-51
2023/01/02 01:24:48;;;;;;;1.25;0.80;;;;;;;14.26;70.28;98550.66;4171551;28;20753;-50
2023/01/02 01:26:50;;;;;;;2.08;1.27;;;;;;;14.26;70.45;98561.69;4169642;28;20295;-51
2023/01/02 01:28:53;;;;;;;2.92;1.20;;;;;;;14.32;69.83;98546.81;4155766;28;20232;-50
2023/01/02 01:30:55;;;;;;;1.80;0.90;;;;;;;14.26;70.69;98547.91;4169328;28;20744;-50
2023/01/02 01:32:56;;;;;;;1.17;0.85;;;;;;;14.26;70.52;98550.66;4147311;28;20297;-50
2023/01/02 01:34:58;;;;;;;3.95;1.60;;;;;;;14.19;70.94;98552.84;4155136;28;20655;-50
2023/01/02 01:37:00;;;;;;;4.68;1.23;;;;;;;14.18;71.02;98556.69;4170732;28;20216;-52
2023/01/02 01:39:02;;;;;;;2.03;0.95;;;;;;;14.29;69.75;98552.88;4171694;28;20248;-52
2023/01/02 01:41:04;;;;;;;2.92;0.90;;;;;;;14.22;70.29;98546.78;4173342;28;20224;-51
2023/01/02 01:43:13;;;;;;;2.63;1.00;;;;;;;14.18;70.61;98550.34;4183770;28;20261;-50
2023/01/02 01:45:15;;;;;;;1.85;0.90;;;;;;;14.21;69.92;98545.16;4169427;28;20290;-51
2023/01/02 01:47:39;;;;;;;1.17;0.85;;;;;;;14.22;69.75;98552.28;4168812;28;20231;-50
2023/01/02 01:49:41;;;;;;;1.48;0.98;;;;;;;14.18;70.37;98550.34;4171193;28;20232;-51
2023/01/02 01:51:50;;;;;;;1.77;1.27;;;;;;;14.12;70.57;98555.00;4170430;28;20239;-50
2023/01/02 01:54:06;;;;;;;1.83;1.42;;;;;;;14.05;70.82;98546.19;4184345;28;21219;-52
2023/01/02 01:56:09;;;;;;;1.27;1.17;;;;;;;14.17;70.05;98544.00;4169122;28;20236;-51
2023/01/02 01:58:15;;;;;;;2.75;1.35;;;;;;;14.20;69.68;98545.41;4168136;28;20308;-50
2023/01/02 02:00:17;;;;;;;1.98;1.50;;;;;;;14.27;69.03;98545.97;4166302;28;20238;-51
2023/01/02 02:02:19;;;;;;;2.20;1.23;;;;;;;14.23;69.38;98537.44;4165477;28;20262;-50
2023/01/02 02:04:22;;;;;;;3.47;1.30;;;;;;;14.30;68.83;98554.50;4150746;28;20355;-51
2023/01/02 02:06:24;;;;;;;1.90;1.00;;;;;;;14.32;68.68;98555.09;4172159;28;20235;-50
2023/01/02 02:08:48;;;;;;;2.92;1.40;;;;;;;14.22;69.25;98541.28;4169100;28;20204;-50
2023/01/02 02:10:50;;;;;;;1.80;1.17;;;;;;;14.32;68.50;98540.47;4183588;28;20307;-50
2023/01/02 02:12:52;;;;;;;2.10;1.38;;;;;;;14.23;69.10;98542.94;4166821;28;20294;-51
2023/01/02 02:14:54;;;;;;;2.50;1.48;;;;;;;14.15;69.73;98543.44;4170474;28;20266;-51
2023/01/02 02:17:03;;;;;;;1.65;1.50;;;;;;;14.13;69.27;98542.06;4151051;28;20244;-50
2023/01/02 02:19:40;;;;;;;2.28;1.63;;;;;;;14.34;68.30;98547.38;4167648;28;20204;-50
2023/01/02 02:21:53;;;;;;;2.00;1.25;;;;;;;14.31;69.16;98549.84;4167710;28;20219;-51
2023/01/02 02:24:33;;;;;;;1.58;1.10;;;;;;;14.25;69.67;98543.50;4183405;28;20597;-50
2023/01/02 02:27:04;;;;;;;4.68;1.27;;;;;;;14.31;68.25;98539.63;4173615;28;20207;-51
2023/01/02 02:29:39;;;;;;;4.03;1.75;;;;;;;14.37;67.29;98537.75;4090885;28;20207;-52
2023/01/02 02:31:46;;;;;;;1.38;0.88;;;;;;;14.30;67.61;98521.47;4168329;28;20214;-51
2023/01/02 02:33:59;;;;;;;2.22;1.42;;;;;;;14.27;67.93;98513.78;4171223;28;20204;-50
2023/01/02 02:36:07;;;;;;;2.38;1.73;;;;;;;14.26;68.31;98509.38;4166249;28;20224;-52
2023/01/02 02:38:14;;;;;;;6.35;1.67;;;;;;;14.28;67.76;98507.16;4180971;28;20674;-50
2023/01/02 02:40:18;;;;;;;3.58;1.55;;;;;;;14.33;67.05;98504.44;4167775;28;20259;-51
2023/01/02 02:42:38;;;;;;;4.03;1.58;;;;;;;14.25;67.38;98496.72;4183755;28;20879;-50
2023/01/02 02:44:52;;;;;;;3.47;1.35;;;;;;;14.24;67.30;98508.81;4183955;28;22018;-51
2023/01/02 02:46:55;;;;;;;2.35;1.40;;;;;;;14.31;66.34;98514.88;4184481;28;20298;-50
2023/01/02 02:49:03;;;;;;;6.50;1.92;;;;;;;14.27;67.02;98511.03;4183407;28;20299;-51
2023/01/02 02:51:29;;;;;;;7.32;1.60;;;;;;;14.27;67.16;98508.28;4168778;28;20299;-51
2023/01/02 02:53:42;;;;;;;1.67;1.50;;;;;;;14.20;67.51;98504.13;4167169;28;20328;-51
2023/01/02 02:55:46;;;;;;;2.95;1.10;;;;;;;14.13;67.58;98504.38;4171054;28;20769;-50
2023/01/02 02:57:49;;;;;;;2.10;1.02;;;;;;;14.12;67.24;98502.72;4182588;28;20262;-50
2023/01/02 02:59:51;;;;;;;2.95;1.38;;;;;;;14.20;66.56;98499.47;4169611;28;20328;-50
2023/01/02 03:01:53;;;;;;;1.20;0.85;;;;;;;14.19;66.73;98503.31;4169953;28;20620;-50
2023/01/02 03:03:55;;;;;;;3.65;1.00;;;;;;;14.13;67.01;98501.63;4184991;28;20259;-52
2023/01/02 03:06:15;;;;;;;2.38;1.17;;;;;;;14.16;66.95;98503.81;4171659;28;20235;-51
2023/01/02 03:08:29;;;;;;;7.30;1.23;;;;;;;14.12;67.31;98504.63;4174713;28;20216;-52
2023/01/02 03:10:49;;;;;;;2.60;0.95;;;;;;;14.11;66.65;98506.53;4169608;28;20263;-50
2023/01/02 03:13:15;;;;;;;2.42;1.63;;;;;;;14.07;67.07;98499.97;4170022;28;20761;-50
2023/01/02 03:15:32;;;;;;;2.72;2.08;;;;;;;14.11;66.78;98500.25;4172599;28;20228;-50
2023/01/02 03:17:46;;;;;;;3.78;1.50;;;;;;;14.01;67.33;98498.28;4170472;28;21109;-51
2023/01/02 03:19:52;;;;;;;4.30;1.35;;;;;;;14.01;67.45;98508.47;4170110;28;20767;-50
2023/01/02 03:22:22;;;;;;;3.83;1.17;;;;;;;13.98;67.11;98507.06;4159112;28;20212;-51
2023/01/02 03:24:24;;;;;;;1.77;1.10;;;;;;;14.09;66.29;98502.44;4166745;28;20718;-51
2023/01/02 03:26:28;;;;;;;2.45;2.25;;;;;;;14.01;66.71;98517.56;4170577;28;20348;-50
2023/01/02 03:28:30;;;;;;;5.07;1.05;;;;;;;14.03;66.27;98515.34;4170602;28;20670;-52
2023/01/02 03:30:34;;;;;;;5.07;1.95;;;;;;;14.04;66.16;98505.19;4169927;28;20251;-50
2023/01/02 03:32:47;;;;;;;5.45;1.60;;;;;;;13.98;66.45;98512.56;4165906;28;20205;-51
2023/01/02 03:34:50;;;;;;;4.88;1.20;;;;;;;14.00;66.39;98518.66;4182169;28;20286;-50
2023/01/02 03:37:00;;;;;;;3.08;1.02;;;;;;;14.01;65.80;98517.56;4170431;28;20203;-50
2023/01/02 03:39:15;;;;;;;3.10;1.40;;;;;;;14.05;65.66;98517.84;4172756;28;20235;-52
2023/01/02 03:41:21;;;;;;;3.00;1.25;;;;;;;14.04;65.82;98517.00;4174443;28;20257;-52
2023/01/02 03:43:28;;;;;;;3.35;1.40;;;;;;;14.13;65.12;98509.88;4175293;28;20815;-51
2023/01/02 03:45:36;;;;;;;4.18;1.25;;;;;;;14.07;65.45;98507.38;4167825;28;20224;-51
2023/01/02 03:48:07;;;;;;;2.30;1.33;;;;;;;13.94;65.91;98511.50;4170465;28;20242;-51
2023/01/02 03:50:20;;;;;;;5.35;1.85;;;;;;;13.97;65.49;98510.94;4173304;28;20311;-53
2023/01/02 03:52:21;;;;;;;1.40;0.82;;;;;;;13.99;65.66;98500.50;4174010;28;20608;-51
2023/01/02 03:54:27;;;;;;;2.70;1.40;;;;;;;14.02;65.37;98510.94;4170782;28;20581;-51
2023/01/02 03:56:41;;;;;;;2.83;1.33;;;;;;;14.04;65.12;98511.50;4167164;28;20683;-51
2023/01/02 03:58:55;;;;;;;8.55;0.90;;;;;;;14.04;64.68;98519.75;4168643;28;20204;-52
2023/01/02 04:01:03;;;;;;;2.72;1.00;;;;;;;13.99;65.17;98525.25;4171348;28;20231;-52
2023/01/02 04:03:10;;;;;;;4.63;1.35;;;;;;;14.04;64.81;98511.50;4169765;28;20554;-52
2023/01/02 04:05:26;;;;;;;1.67;1.50;;;;;;;14.04;64.70;98510.69;4170857;28;20240;-52
2023/01/02 04:07:49;;;;;;;1.65;1.20;;;;;;;14.06;64.33;98520.31;4169241;28;20229;-52
2023/01/02 04:09:51;;;;;;;4.15;1.63;;;;;;;14.09;63.92;98524.47;4175390;28;20227;-51
2023/01/02 04:11:58;;;;;;;6.53;1.77;;;;;;;14.08;64.19;98518.13;4157869;28;20673;-51
2023/01/02 04:14:03;;;;;;;2.20;1.23;;;;;;;14.05;64.35;98524.19;4168763;28;20534;-53
2023/01/02 04:16:08;;;;;;;2.72;1.60;;;;;;;14.08;64.20;98518.13;4169332;28;20327;-51
2023/01/02 04:18:40;;;;;;;5.35;1.30;;;;;;;14.05;63.98;98507.66;4182236;28;20242;-51
2023/01/02 04:20:50;;;;;;;1.45;1.10;;;;;;;13.99;64.48;98507.91;4152280;28;20637;-51
2023/01/02 04:23:12;;;;;;;3.70;1.10;;;;;;;13.93;64.42;98514.50;4152336;28;20244;-50
2023/01/02 04:25:16;;;;;;;5.00;1.52;;;;;;;14.07;63.66;98510.13;4170446;28;20284;-51
2023/01/02 04:27:20;;;;;;;2.72;1.42;;;;;;;13.95;64.33;98502.13;4170728;28;20203;-51
2023/01/02 04:29:22;;;;;;;4.53;1.15;;;;;;;13.93;64.26;98503.50;4169041;28;20259;-52
2023/01/02 04:31:50;;;;;;;6.85;1.95;;;;;;;13.85;64.63;98504.03;4170827;28;20243;-52
2023/01/02 04:33:55;;;;;;;1.45;1.25;;;;;;;13.85;64.47;98502.13;4182990;28;20306;-51
2023/01/02 04:35:57;;;;;;;4.35;1.17;;;;;;;13.91;63.67;98494.69;4168961;28;20205;-51
2023/01/02 04:38:08;;;;;;;6.22;1.67;;;;;;;13.88;63.78;98511.72;4183201;28;20243;-52
2023/01/02 04:40:23;;;;;;;2.08;1.33;;;;;;;13.89;64.46;98516.97;4183829;28;20258;-52
2023/01/02 04:42:24;;;;;;;7.60;1.67;;;;;;;13.99;62.95;98519.75;4172040;28;20323;-51
2023/01/02 04:44:26;;;;;;;2.05;1.65;;;;;;;13.89;63.64;98516.97;4171518;28;20227;-52
2023/01/02 04:46:28;;;;;;;4.50;1.40;;;;;;;13.86;63.73;98525.78;4169538;28;20254;-50
2023/01/02 04:48:30;;;;;;;4.00;1.85;;;;;;;13.85;63.32;98528.78;4163321;28;20208;-52
2023/01/02 04:50:32;;;;;;;2.67;1.27;;;;;;;13.89;63.01;98530.72;4166788;28;20231;-50
2023/01/02 04:52:34;;;;;;;5.38;1.63;;;;;;;13.85;63.00;98524.13;4171911;28;20621;-51
2023/01/02 04:54:38;;;;;;;2.30;0.90;;;;;;;13.82;63.32;98530.16;4170324;28;20258;-51
2023/01/02 04:56:39;;;;;;;4.97;1.48;;;;;;;13.83;63.16;98529.06;4168558;28;20242;-52
2023/01/02 04:58:43;;;;;;;2.33;1.70;;;;;;;13.92;62.16;98534.84;4168748;28;20220;-52
2023/01/02 05:00:44;;;;;;;7.20;1.60;;;;;;;14.00;62.03;98543.41;4167330;28;20333;-52
2023/01/02 05:02:46;;;;;;;4.13;1.17;;;;;;;13.92;62.61;98535.69;4166791;28;20590;-50
2023/01/02 05:04:48;;;;;;;7.85;1.70;;;;;;;14.01;61.89;98545.06;4172312;28;20244;-52
2023/01/02 05:06:50;;;;;;;2.95;1.25;;;;;;;14.02;61.94;98541.22;4166040;28;20254;-53
2023/01/02 05:08:51;;;;;;;4.03;1.45;;;;;;;14.16;60.84;98536.84;4170722;28;20200;-52
2023/01/02 05:10:53;;;;;;;2.50;1.73;;;;;;;14.04;61.76;98533.50;4153397;28;20602;-50
2023/01/02 05:12:58;;;;;;;3.40;1.20;;;;;;;14.06;61.52;98541.50;4152906;28;20212;-50
2023/01/02 05:15:00;;;;;;;2.05;1.25;;;;;;;13.97;61.86;98549.44;4170237;28;20249;-51
2023/01/02 05:17:01;;;;;;;3.50;1.40;;;;;;;14.01;61.55;98544.22;4169043;28;20789;-52
2023/01/02 05:19:03;;;;;;;4.03;1.70;;;;;;;14.01;61.85;98556.06;4151410;28;20208;-51
2023/01/02 05:23:48;;;;;;;3.30;1.23;;;;;;;14.05;61.48;98557.19;4168523;28;20586;-51
2023/01/02 05:25:50;;;;;;;3.92;1.90;;;;;;;14.01;61.88;98560.75;4167925;28;20203;-51
2023/01/02 05:27:53;;;;;;;1.65;1.25;;;;;;;14.05;61.38;98562.69;4171803;28;20204;-50
2023/01/02 05:29:55;;;;;;;2.80;1.52;;;;;;;13.95;62.25;98565.41;4169526;28;20270;-52
2023/01/02 05:31:57;;;;;;;5.45;1.92;;;;;;;14.05;61.66;98562.69;4171374;28;20274;-52
2023/01/02 05:33:59;;;;;;;2.42;1.13;;;;;;;13.94;62.35;98561.00;4170324;28;20232;-51
2023/01/02 05:36:03;;;;;;;6.10;1.17;;;;;;;13.98;62.04;98556.59;4170221;28;20242;-52
2023/01/02 05:38:05;;;;;;;2.90;0.98;;;;;;;14.08;61.75;98562.16;4167853;28;20787;-52
2023/01/02 05:40:07;;;;;;;2.53;1.20;;;;;;;14.07;62.03;98565.16;4178903;28;20629;-52
2023/01/02 05:42:09;;;;;;;3.53;1.58;;;;;;;13.99;63.47;98563.78;4168014;28;20212;-51
2023/01/02 05:44:10;;;;;;;7.25;1.15;;;;;;;14.03;62.83;98569.56;4169729;28;20307;-50
2023/01/02 05:46:14;;;;;;;3.22;1.52;;;;;;;13.92;63.20;98565.97;4170533;28;20682;-50
2023/01/02 05:48:16;;;;;;;6.68;1.70;;;;;;;13.90;63.56;98570.06;4171923;28;20208;-52
2023/01/02 05:50:18;;;;;;;2.83;1.67;;;;;;;13.90;63.81;98576.38;4173210;28;20678;-53
2023/01/02 05:52:20;;;;;;;5.35;2.45;;;;;;;13.85;63.99;98581.91;4169287;28;21213;-51
2023/01/02 05:54:21;;;;;;;4.78;1.13;;;;;;;13.89;63.97;98584.94;4170896;28;20246;-53
2023/01/02 05:56:26;;;;;;;2.92;1.30;;;;;;;13.81;64.26;98591.78;4179670;28;20309;-52
2023/01/02 05:58:31;;;;;;;7.13;1.38;;;;;;;13.87;63.90;98581.59;4169781;28;20214;-51
2023/01/02 06:00:32;;;;;;;2.90;1.45;;;;;;;13.82;64.08;98587.91;4182700;28;20311;-52
2023/01/02 06:02:34;;;;;;;4.75;1.45;;;;;;;13.89;63.71;98590.44;4171477;28;20214;-51
2023/01/02 06:04:36;;;;;;;2.33;1.38;;;;;;;13.89;64.00;98585.75;4167442;28;20228;-51
2023/01/02 06:06:38;;;;;;;6.30;2.60;;;;;;;13.94;63.91;98599.53;4166996;28;20246;-51
2023/01/02 06:08:40;;;;;;;6.72;1.52;;;;;;;13.90;63.96;98587.38;4169271;28;20232;-51
2023/01/02 06:10:49;;;;;;;3.45;1.90;;;;;;;13.82;64.07;98604.41;4168848;28;20704;-51
2023/01/02 06:12:51;;;;;;;3.13;1.52;;;;;;;13.84;64.06;98604.97;4165543;28;20305;-52
2023/01/02 06:14:52;;;;;;;2.28;1.77;;;;;;;13.88;63.98;98600.59;4166910;28;20303;-50
2023/01/02 06:16:54;;;;;;;2.03;1.35;;;;;;;13.80;64.44;98595.63;4154503;28;20220;-51
2023/01/02 06:18:56;;;;;;;2.88;1.23;;;;;;;13.77;64.69;98598.88;4167472;28;21140;-52
2023/01/02 06:21:01;;;;;;;3.03;1.20;;;;;;;13.84;64.41;98593.16;4169998;28;20215;-52
2023/01/02 06:23:02;;;;;;;4.65;1.67;;;;;;;14.03;63.22;98586.88;4164788;28;20218;-52
2023/01/02 06:25:04;;;;;;;5.03;1.95;;;;;;;13.99;63.73;98587.72;4170923;28;20322;-52
2023/01/02 06:27:06;;;;;;;1.90;1.00;;;;;;;13.91;64.27;98582.72;4180491;28;20298;-52
2023/01/02 06:29:08;;;;;;;7.55;2.85;;;;;;;13.87;64.62;98598.09;4168742;28;20238;-52
2023/01/02 06:31:13;;;;;;;3.65;1.75;;;;;;;13.89;64.42;98602.25;4166641;28;20318;-53
2023/01/02 06:33:14;;;;;;;4.50;2.17;;;;;;;13.81;65.07;98594.53;4168621;28;20200;-51
2023/01/02 06:35:16;;;;;;;8.82;1.73;;;;;;;13.88;64.67;98610.75;4165075;28;20737;-50
2023/01/02 06:37:18;;;;;;;4.20;1.10;;;;;;;13.82;65.02;98596.16;4150365;28;20239;-51
2023/01/02 06:39:20;;;;;;;2.58;1.42;;;;;;;13.79;64.77;98596.72;4162886;28;20773;-50
2023/01/02 06:41:22;;;;;;;2.38;1.65;;;;;;;13.88;64.71;98589.59;4186488;28;20242;-52
2023/01/02 06:43:24;;;;;;;2.20;1.20;;;;;;;13.90;64.44;98597.59;4171533;28;20303;-51
2023/01/02 06:45:26;;;;;;;5.30;1.52;;;;;;;13.85;65.12;98592.91;4172186;28;20303;-52
2023/01/02 06:47:28;;;;;;;2.35;1.20;;;;;;;13.83;65.45;98597.81;4172152;28;20812;-50
2023/01/02 06:49:30;;;;;;;3.67;1.60;;;;;;;13.85;65.19;98595.66;4166871;28;20327;-50
2023/01/02 06:51:32;;;;;;;4.40;1.45;;;;;;;13.85;65.09;98601.16;4164941;28;20216;-51
2023/01/02 06:53:36;;;;;;;1.92;1.00;;;;;;;13.84;65.37;98604.97;4172312;28;20599;-51
2023/01/02 06:55:38;;;;;;;4.32;1.60;;;;;;;13.87;65.44;98604.44;4185521;28;20654;-52
2023/01/02 06:57:40;;;;;;;2.55;1.33;;;;;;;13.83;65.66;98603.31;4154427;28;20271;-51
2023/01/02 06:59:43;;;;;;;5.30;1.85;;;;;;;13.79;66.00;98604.97;4155530;28;20351;-52
2023/01/02 07:01:45;;;;;;;4.03;3.05;;;;;;;13.74;66.20;98602.19;4167408;28;20618;-54
2023/01/02 07:03:47;;;;;;;4.28;1.25;;;;;;;13.73;66.17;98611.53;4174689;28;20203;-52
2023/01/02 07:05:49;;;;;;;4.88;1.50;;;;;;;13.87;65.73;98618.22;4170593;28;20225;-52
2023/01/02 07:07:51;;;;;;;2.53;1.10;;;;;;;13.83;66.05;98614.31;4173044;28;20273;-53
2023/01/02 07:09:53;;;;;;;3.53;1.65;;;;;;;13.89;65.84;98612.44;4159456;28;20254;-52
2023/01/02 07:11:55;;;;;;;2.05;0.95;;;;;;;13.87;66.08;98620.97;4154199;28;20243;-53
2023/01/02 07:13:57;;;;;;;1.27;1.13;;;;;;;13.87;66.11;98609.94;4172400;28;20210;-52
2023/01/02 07:16:04;;;;;;;6.18;2.60;;;;;;;13.88;66.23;98611.59;4153437;28;20328;-52
2023/01/02 07:18:06;;;;;;;4.35;1.38;;;;;;;13.84;67.26;98617.91;4170827;28;20297;-51
2023/01/02 07:20:08;;;;;;;3.63;0.95;;;;;;;13.86;66.68;98618.47;4170545;28;20227;-51
2023/01/02 07:22:10;;;;;;;2.88;1.73;;;;;;;13.80;67.43;98614.03;4172817;28;20651;-51
2023/01/02 07:24:14;;;;;;;2.65;1.48;;;;;;;13.76;67.31;98607.44;4172383;28;20227;-52
2023/01/02 07:26:16;;;;;;;4.82;1.90;;;;;;;13.78;67.29;98606.03;4166490;28;20200;-53
2023/01/02 07:28:18;;;;;;;2.30;1.38;;;;;;;13.78;67.65;98600.53;4167543;28;20203;-53
2023/01/02 07:30:20;;;;;;;2.25;1.33;;;;;;;13.76;67.65;98602.75;4168899;28;20232;-51
2023/01/02 07:32:25;;;;;;;5.82;1.60;;;;;;;13.78;67.64;98600.53;4169993;28;20204;-51
2023/01/02 07:34:28;;;;;;;3.72;1.77;;;;;;;13.79;68.08;98604.97;4172890;28;20299;-50
2023/01/02 07:36:41;;;;;;;1.48;0.95;;;;;;;13.72;68.46;98609.91;4172656;28;20220;-50
2023/01/02 07:38:50;;;;;;;20.02;2.25;;;;;;;13.66;68.75;98630.22;4169842;28;20211;-50
2023/01/02 07:40:52;;;;;;;5.63;1.20;;;;;;;13.75;68.42;98622.25;4188032;28;20228;-52
2023/01/02 07:42:54;;;;;;;3.00;1.30;;;;;;;13.71;68.70;98621.97;4155646;28;20573;-52
2023/01/02 07:45:02;;;;;;;1.95;1.40;;;;;;;13.68;68.64;98627.16;4172281;28;20220;-52
2023/01/02 07:47:04;;;;;;;3.65;1.85;;;;;;;13.70;69.21;98623.06;4170707;28;20290;-52
2023/01/02 07:49:06;;;;;;;1.30;1.20;;;;;;;13.63;69.64;98638.16;4173882;28;20340;-51
2023/01/02 07:51:09;;;;;;;6.90;0.80;;;;;;;13.76;68.72;98646.75;4157775;28;20558;-51
2023/01/02 07:53:12;;;;;;;2.40;1.27;;;;;;;13.70;69.20;98653.31;4184077;28;20236;-51
2023/01/02 07:55:14;;;;;;;6.53;1.80;;;;;;;13.70;70.36;98658.81;4172089;28;20632;-51
2023/01/02 07:57:16;;;;;;;6.53;2.00;;;;;;;13.68;70.17;98658.25;4176312;28;20204;-51
2023/01/02 07:59:19;;;;;;;5.45;2.17;;;;;;;13.68;71.22;98666.50;4170713;28;20314;-52
2023/01/02 08:01:25;;;;;;;3.42;1.77;;;;;;;13.73;71.37;98669.31;4176386;28;20208;-51
2023/01/02 08:03:28;;;;;;;4.13;1.98;;;;;;;13.75;70.70;98672.59;4184860;28;20207;-52
2023/01/02 08:05:33;;;;;;;4.28;1.48;;;;;;;13.75;70.80;98666.25;4170210;28;20232;-51
2023/01/02 08:07:35;;;;;;;3.80;1.20;;;;;;;13.71;71.60;98663.22;4173531;28;20223;-51
2023/01/02 08:09:45;;;;;;;1.63;1.45;;;;;;;13.73;71.02;98668.47;4172303;28;20229;-51
2023/01/02 08:11:47;;;;;;;3.85;1.40;;;;;;;13.72;71.27;98673.16;4169358;28;20266;-52
2023/01/02 08:13:49;;;;;;;2.60;1.20;;;;;;;13.73;71.74;98669.31;4158604;28;20232;-51
2023/01/02 08:15:52;;;;;;;7.80;1.20;;;;;;;13.79;71.40;98679.25;4170763;28;20215;-52
2023/01/02 08:17:56;;;;;;;1.50;1.40;;;;;;;13.85;71.29;98693.84;4174447;28;20215;-50
2023/01/02 08:20:00;;;;;;;4.50;1.40;;;;;;;13.75;72.55;98693.75;4170828;28;20227;-51
2023/01/02 08:22:08;;;;;;;1.98;1.42;;;;;;;13.70;72.67;98688.25;4169232;28;20208;-52
2023/01/02 08:24:10;;;;;;;2.70;2.17;;;;;;;13.72;73.54;98700.66;4166248;28;20223;-53
2023/01/02 08:26:13;;;;;;;2.05;1.77;;;;;;;13.77;72.71;98694.34;4167942;28;20647;-51
2023/01/02 08:28:15;;;;;;;10.50;1.65;;;;;;;13.76;72.95;98707.25;4156337;28;20263;-50
2023/01/02 08:30:17;;;;;;;1.95;1.10;;;;;;;13.79;72.66;98714.16;4170066;28;20224;-52
2023/01/02 08:32:19;;;;;;;6.68;1.30;;;;;;;13.71;73.48;98709.97;4168769;28;20207;-51
2023/01/02 08:34:21;;;;;;;9.00;1.95;;;;;;;13.72;73.94;98705.31;4169091;28;20223;-52
2023/01/02 08:36:29;;;;;;;1.08;0.98;;;;;;;13.78;73.65;98704.25;4174202;28;20196;-50
2023/01/02 08:38:31;;;;;;;2.58;1.65;;;;;;;13.72;74.33;98717.16;4158440;28;20744;-51
2023/01/02 08:40:33;;;;;;;3.13;1.65;;;;;;;13.71;74.02;98706.41;4171223;28;20267;-50
2023/01/02 08:42:41;;;;;;;5.20;1.60;;;;;;;13.72;74.28;98713.56;4171444;28;20201;-50
2023/01/02 08:44:53;;;;;;;2.60;1.05;;;;;;;13.68;74.58;98715.19;4186029;28;20206;-51
2023/01/02 08:46:58;;;;;;;4.90;1.60;;;;;;;13.70;74.35;98719.31;4172512;28;20218;-51
2023/01/02 08:49:00;;;;;;;2.38;2.00;;;;;;;13.68;74.50;98707.78;4142283;28;20205;-53
2023/01/02 08:51:03;;;;;;;2.30;1.30;;;;;;;13.75;74.48;98711.09;4172307;28;20216;-53
2023/01/02 08:53:05;;;;;;;2.33;1.13;;;;;;;13.75;74.22;98699.25;4183570;28;20783;-51
2023/01/02 08:55:13;;;;;;;3.75;1.45;;;;;;;13.77;74.30;98713.59;4174833;28;20231;-53
2023/01/02 08:57:15;;;;;;;1.90;1.20;;;;;;;13.77;74.37;98708.09;4153137;28;20213;-53
2023/01/02 08:59:17;;;;;;;2.95;1.27;;;;;;;13.73;74.88;98702.31;4187288;28;20713;-51
2023/01/02 09:01:20;;;;;;;6.63;1.00;;;;;;;13.76;74.62;98710.00;4186838;28;20327;-51
2023/01/02 09:03:22;;;;;;;2.90;2.63;;;;;;;13.80;74.85;98707.56;4168077;28;20267;-51
2023/01/02 09:05:26;;;;;;;10.30;1.80;;;;;;;13.76;75.58;98707.25;4176676;28;20308;-51
2023/01/02 09:07:31;;;;;;;2.25;1.85;;;;;;;13.80;74.83;98708.41;4170290;28;20204;-51
2023/01/02 09:09:39;;;;;;;4.05;2.00;;;;;;;13.73;75.03;98721.56;4169749;28;20238;-52
2023/01/02 09:11:49;;;;;;;2.20;1.35;;;;;;;13.73;75.32;98729.81;4156155;28;22238;-52
2023/01/02 09:13:51;;;;;;;2.58;1.48;;;;;;;13.78;75.32;98743.56;4170804;28;20993;-51
2023/01/02 09:15:53;;;;;;;2.35;1.42;;;;;;;13.88;75.62;98738.16;4166150;28;20243;-53
2023/01/02 09:17:55;;;;;;;1.85;1.23;;;;;;;13.93;75.15;98735.44;4164003;28;20216;-51
2023/01/02 09:19:57;;;;;;;4.78;1.77;;;;;;;13.95;75.26;98744.25;4146406;28;20252;-52
2023/01/02 09:22:03;;;;;;;2.90;1.20;;;;;;;13.96;74.83;98745.91;4177375;28;20270;-51
2023/01/02 09:24:05;;;;;;;2.72;1.35;;;;;;;14.01;74.93;98756.94;4162920;28;20405;-51
2023/01/02 09:26:07;;;;;;;1.30;1.17;;;;;;;13.96;75.14;98754.16;4159976;28;20279;-53
2023/01/02 09:28:14;;;;;;;2.28;1.35;;;;;;;13.97;74.96;98750.31;4161021;28;20204;-52
2023/01/02 09:30:16;;;;;;;3.20;1.73;;;;;;;14.01;75.81;98756.94;4166790;28;20625;-52
2023/01/02 09:32:18;;;;;;;3.47;1.50;;;;;;;14.03;76.14;98762.19;4149151;28;20974;-53
2023/01/02 09:34:20;;;;;;;1.85;1.60;;;;;;;14.02;76.63;98764.09;4168316;28;20921;-53
2023/01/02 09:36:24;;;;;;;5.40;1.67;;;;;;;13.96;76.54;98778.91;4167088;28;20216;-53
2023/01/02 09:38:26;;;;;;;4.60;1.50;;;;;;;13.91;77.85;98769.81;4169956;28;20744;-54
2023/01/02 09:40:28;;;;;;;3.53;2.15;;;;;;;13.76;79.29;98778.78;4149417;28;20232;-52
2023/01/02 09:42:30;;;;;;;4.43;1.77;;;;;;;13.74;80.65;98780.13;4182522;28;20265;-52
2023/01/02 09:44:44;;;;;;;2.50;1.60;;;;;;;13.63;81.89;98789.41;4167280;28;20233;-53
2023/01/02 09:46:55;;;;;;;11.82;2.67;;;;;;;13.54;82.90;98783.56;4164252;28;20409;-53
2023/01/02 09:49:00;;;;;;;2.45;1.15;;;;;;;13.41;84.75;98797.75;4148849;28;20650;-51
2023/01/02 09:51:03;;;;;;;6.07;1.88;;;;;;;13.40;85.71;98803.50;4169075;28;20212;-53
2023/01/02 09:53:09;;;;;;;2.60;1.40;;;;;;;13.14;88.03;98813.41;4164200;28;20204;-50